sensor_id;sensor_type;location;lat;lon;timestamp;temperature;humidity
19017;DHT22;9641;51.494;6.670;2022-12-18T00:01:00;-4.70;88.90
19017;DHT22;9641;51.494;6.670;2022-12-18T00:03:32;-4.80;94.00
19017;DHT22;9641;51.494;6.670;2022-12-18T00:06:00;-4.90;95.40
19017;DHT22;9641;51.494;6.670;2022-12-18T00:08:28;-5.00;98.30
19017;DHT22;9641;51.494;6.670;2022-12-18T00:11:03;-5.00;99.90
19017;DHT22;9641;51.494;6.670;2022-12-18T00:13:31;-5.00;99.90
19017;DHT22;9641;51.494;6.670;2022-12-18T00:16:01;-5.10;99.90
19017;DHT22;9641;51.494;6.670;2022-12-18T00:18:28;-5.00;99.90
19017;DHT22;9641;51.494;6.670;2022-12-18T00:21:00;-4.90;99.90
19017;DHT22;9641;51.494;6.670;2022-12-18T00:23:30;-4.90;99.90
19017;DHT22;9641;51.494;6.670;2022-12-18T00:25:59;-4.90;99.90
19017;DHT22;9641;51.494;6.670;2022-12-18T00:28:26;-4.80;99.90
19017;DHT22;9641;51.494;6.670;2022-12-18T00:31:00;-4.60;99.90
19017;DHT22;9641;51.494;6.670;2022-12-18T00:33:27;-4.50;99.90
19017;DHT22;9641;51.494;6.670;2022-12-18T00:35:55;-4.40;92.90
19017;DHT22;9641;51.494;6.670;2022-12-18T00:38:28;-4.20;84.40
19017;DHT22;9641;51.494;6.670;2022-12-18T00:40:56;-4.10;62.40
19017;DHT22;9641;51.494;6.670;2022-12-18T00:43:23;-4.10;58.00
19017;DHT22;9641;51.494;6.670;2022-12-18T00:45:49;-4.10;45.70
19017;DHT22;9641;51.494;6.670;2022-12-18T00:48:18;-4.20;57.40
19017;DHT22;9641;51.494;6.670;2022-12-18T00:50:45;-4.20;52.60
19017;DHT22;9641;51.494;6.670;2022-12-18T00:53:12;-4.20;51.00
19017;DHT22;9641;51.494;6.670;2022-12-18T00:55:41;-4.30;52.00
19017;DHT22;9641;51.494;6.670;2022-12-18T00:58:09;-4.40;61.20
19017;DHT22;9641;51.494;6.670;2022-12-18T01:00:36;-4.50;66.80
19017;DHT22;9641;51.494;6.670;2022-12-18T01:03:04;-4.50;69.40
19017;DHT22;9641;51.494;6.670;2022-12-18T01:05:32;-4.70;79.50
19017;DHT22;9641;51.494;6.670;2022-12-18T01:08:00;-4.70;89.10
19017;DHT22;9641;51.494;6.670;2022-12-18T01:10:27;-4.80;94.90
19017;DHT22;9641;51.494;6.670;2022-12-18T01:12:58;-4.80;98.20
19017;DHT22;9641;51.494;6.670;2022-12-18T01:15:37;-4.80;98.10
19017;DHT22;9641;51.494;6.670;2022-12-18T01:18:05;-4.80;99.90
19017;DHT22;9641;51.494;6.670;2022-12-18T01:20:32;-4.70;99.90
19017;DHT22;9641;51.494;6.670;2022-12-18T01:23:00;-4.60;98.90
19017;DHT22;9641;51.494;6.670;2022-12-18T01:25:26;-4.60;95.50
19017;DHT22;9641;51.494;6.670;2022-12-18T01:27:54;-4.60;92.80
19017;DHT22;9641;51.494;6.670;2022-12-18T01:30:22;-4.80;92.10
19017;DHT22;9641;51.494;6.670;2022-12-18T01:32:52;-4.80;96.30
19017;DHT22;9641;51.494;6.670;2022-12-18T01:35:19;-4.70;99.90
19017;DHT22;9641;51.494;6.670;2022-12-18T01:37:46;-4.70;99.90
19017;DHT22;9641;51.494;6.670;2022-12-18T01:40:14;-4.70;99.80
19017;DHT22;9641;51.494;6.670;2022-12-18T01:42:42;-4.80;95.80
19017;DHT22;9641;51.494;6.670;2022-12-18T01:45:26;-4.80;99.60
19017;DHT22;9641;51.494;6.670;2022-12-18T01:47:55;-4.80;98.30
19017;DHT22;9641;51.494;6.670;2022-12-18T01:50:25;-4.80;97.20
19017;DHT22;9641;51.494;6.670;2022-12-18T01:52:56;-4.80;97.40
19017;DHT22;9641;51.494;6.670;2022-12-18T01:55:26;-4.70;98.80
19017;DHT22;9641;51.494;6.670;2022-12-18T01:57:57;-4.70;93.60
19017;DHT22;9641;51.494;6.670;2022-12-18T02:00:27;-4.70;87.80
19017;DHT22;9641;51.494;6.670;2022-12-18T02:02:54;-4.70;86.30
19017;DHT22;9641;51.494;6.670;2022-12-18T02:05:29;-4.60;82.70
19017;DHT22;9641;51.494;6.670;2022-12-18T02:08:03;-4.60;71.50
19017;DHT22;9641;51.494;6.670;2022-12-18T02:10:38;-4.70;71.40
19017;DHT22;9641;51.494;6.670;2022-12-18T02:13:12;-4.60;75.70
19017;DHT22;9641;51.494;6.670;2022-12-18T02:15:51;-4.50;64.90
19017;DHT22;9641;51.494;6.670;2022-12-18T02:18:24;-4.40;56.50
19017;DHT22;9641;51.494;6.670;2022-12-18T02:20:58;-4.40;50.00
19017;DHT22;9641;51.494;6.670;2022-12-18T02:23:39;-4.40;37.00
19017;DHT22;9641;51.494;6.670;2022-12-18T02:26:15;-4.50;36.10
19017;DHT22;9641;51.494;6.670;2022-12-18T02:28:46;-4.50;42.70
19017;DHT22;9641;51.494;6.670;2022-12-18T02:31:20;-4.50;46.00
19017;DHT22;9641;51.494;6.670;2022-12-18T02:33:49;-4.40;49.40
19017;DHT22;9641;51.494;6.670;2022-12-18T02:36:18;-4.30;37.40
19017;DHT22;9641;51.494;6.670;2022-12-18T02:38:49;-4.30;22.10
19017;DHT22;9641;51.494;6.670;2022-12-18T02:41:24;-4.30;17.70
19017;DHT22;9641;51.494;6.670;2022-12-18T02:43:56;-4.30;20.40
19017;DHT22;9641;51.494;6.670;2022-12-18T02:46:28;-4.40;26.40
19017;DHT22;9641;51.494;6.670;2022-12-18T02:49:02;-4.60;31.10
19017;DHT22;9641;51.494;6.670;2022-12-18T02:51:39;-4.60;47.20
19017;DHT22;9641;51.494;6.670;2022-12-18T02:54:10;-4.50;48.80
19017;DHT22;9641;51.494;6.670;2022-12-18T02:56:46;-4.50;45.30
19017;DHT22;9641;51.494;6.670;2022-12-18T02:59:19;-4.60;42.90
19017;DHT22;9641;51.494;6.670;2022-12-18T03:01:57;-4.60;52.20
19017;DHT22;9641;51.494;6.670;2022-12-18T03:04:28;-4.70;54.70
19017;DHT22;9641;51.494;6.670;2022-12-18T03:06:59;-4.70;60.10
19017;DHT22;9641;51.494;6.670;2022-12-18T03:09:33;-4.60;64.90
19017;DHT22;9641;51.494;6.670;2022-12-18T03:12:06;-4.60;59.00
19017;DHT22;9641;51.494;6.670;2022-12-18T03:14:52;-4.60;56.80
19017;DHT22;9641;51.494;6.670;2022-12-18T03:17:24;-4.60;66.00
19017;DHT22;9641;51.494;6.670;2022-12-18T03:19:53;-4.40;64.40
19017;DHT22;9641;51.494;6.670;2022-12-18T03:22:24;-4.40;51.30
19017;DHT22;9641;51.494;6.670;2022-12-18T03:24:54;-4.30;46.80
19017;DHT22;9641;51.494;6.670;2022-12-18T03:27:26;-4.40;39.50
19017;DHT22;9641;51.494;6.670;2022-12-18T03:30:01;-4.40;46.10
19017;DHT22;9641;51.494;6.670;2022-12-18T03:32:39;-4.20;47.50
19017;DHT22;9641;51.494;6.670;2022-12-18T03:35:08;-4.30;36.00
19017;DHT22;9641;51.494;6.670;2022-12-18T03:37:37;-4.30;38.30
19017;DHT22;9641;51.494;6.670;2022-12-18T03:40:06;-4.20;39.40
19017;DHT22;9641;51.494;6.670;2022-12-18T03:42:41;-4.20;36.80
19017;DHT22;9641;51.494;6.670;2022-12-18T03:45:13;-4.10;38.80
19017;DHT22;9641;51.494;6.670;2022-12-18T03:47:52;-3.90;32.60
19017;DHT22;9641;51.494;6.670;2022-12-18T03:50:32;-3.90;20.40
19017;DHT22;9641;51.494;6.670;2022-12-18T03:53:07;-3.80;10.80
19017;DHT22;9641;51.494;6.670;2022-12-18T03:55:37;-3.80;1.00
19017;DHT22;9641;51.494;6.670;2022-12-18T03:58:10;-3.90;11.30
19017;DHT22;9641;51.494;6.670;2022-12-18T04:00:51;-3.90;4.90
19017;DHT22;9641;51.494;6.670;2022-12-18T04:03:20;-3.90;6.10
19017;DHT22;9641;51.494;6.670;2022-12-18T04:05:50;-4.00;12.60
19017;DHT22;9641;51.494;6.670;2022-12-18T04:08:21;-3.90;19.30
19017;DHT22;9641;51.494;6.670;2022-12-18T04:11:00;-3.90;22.50
19017;DHT22;9641;51.494;6.670;2022-12-18T04:13:32;-3.90;22.10
19017;DHT22;9641;51.494;6.670;2022-12-18T04:16:01;-3.80;20.70
19017;DHT22;9641;51.494;6.670;2022-12-18T04:18:28;-3.80;12.50
19017;DHT22;9641;51.494;6.670;2022-12-18T04:20:55;-3.80;17.20
19017;DHT22;9641;51.494;6.670;2022-12-18T04:23:22;-3.90;13.50
19017;DHT22;9641;51.494;6.670;2022-12-18T04:25:49;-4.00;15.20
19017;DHT22;9641;51.494;6.670;2022-12-18T04:28:26;-4.10;27.80
19017;DHT22;9641;51.494;6.670;2022-12-18T04:30:54;-3.90;42.10
19017;DHT22;9641;51.494;6.670;2022-12-18T04:33:21;-3.80;32.60
19017;DHT22;9641;51.494;6.670;2022-12-18T04:35:48;-3.80;29.40
19017;DHT22;9641;51.494;6.670;2022-12-18T04:38:17;-3.60;20.60
19017;DHT22;9641;51.494;6.670;2022-12-18T04:40:46;-3.50;6.10
19017;DHT22;9641;51.494;6.670;2022-12-18T04:43:20;-3.60;1.00
19017;DHT22;9641;51.494;6.670;2022-12-18T04:45:47;-3.60;1.00
19017;DHT22;9641;51.494;6.670;2022-12-18T04:48:16;-3.60;1.00
19017;DHT22;9641;51.494;6.670;2022-12-18T04:50:43;-3.60;1.40
19017;DHT22;9641;51.494;6.670;2022-12-18T04:53:10;-3.50;1.00
19017;DHT22;9641;51.494;6.670;2022-12-18T04:55:37;-3.50;1.00
19017;DHT22;9641;51.494;6.670;2022-12-18T04:58:04;-3.40;1.00
19017;DHT22;9641;51.494;6.670;2022-12-18T05:00:31;-3.30;1.00
19017;DHT22;9641;51.494;6.670;2022-12-18T05:03:00;-3.40;1.00
19017;DHT22;9641;51.494;6.670;2022-12-18T05:05:28;-3.40;1.00
19017;DHT22;9641;51.494;6.670;2022-12-18T05:07:56;-3.50;1.00
19017;DHT22;9641;51.494;6.670;2022-12-18T05:10:23;-3.50;1.00
19017;DHT22;9641;51.494;6.670;2022-12-18T05:12:49;-3.50;1.00
19017;DHT22;9641;51.494;6.670;2022-12-18T05:15:28;-3.50;1.00
19017;DHT22;9641;51.494;6.670;2022-12-18T05:17:56;-3.60;1.00
19017;DHT22;9641;51.494;6.670;2022-12-18T05:20:23;-3.80;4.90
19017;DHT22;9641;51.494;6.670;2022-12-18T05:22:52;-3.80;13.20
19017;DHT22;9641;51.494;6.670;2022-12-18T05:25:19;-3.70;13.10
19017;DHT22;9641;51.494;6.670;2022-12-18T05:27:47;-3.80;10.70
19017;DHT22;9641;51.494;6.670;2022-12-18T05:30:14;-3.90;11.50
19017;DHT22;9641;51.494;6.670;2022-12-18T05:32:41;-3.90;20.40
19017;DHT22;9641;51.494;6.670;2022-12-18T05:35:10;-4.00;25.60
19017;DHT22;9641;51.494;6.670;2022-12-18T05:37:37;-4.00;22.70
19017;DHT22;9641;51.494;6.670;2022-12-18T05:40:07;-4.10;24.50
19017;DHT22;9641;51.494;6.670;2022-12-18T05:42:34;-4.10;31.10
19017;DHT22;9641;51.494;6.670;2022-12-18T05:45:01;-4.00;35.70
19017;DHT22;9641;51.494;6.670;2022-12-18T05:47:28;-4.10;32.00
19017;DHT22;9641;51.494;6.670;2022-12-18T05:49:56;-4.10;36.00
19017;DHT22;9641;51.494;6.670;2022-12-18T05:52:23;-4.20;33.60
19017;DHT22;9641;51.494;6.670;2022-12-18T05:54:50;-4.20;39.10
19017;DHT22;9641;51.494;6.670;2022-12-18T05:57:19;-4.20;51.00
19017;DHT22;9641;51.494;6.670;2022-12-18T05:59:46;-4.10;58.40
19017;DHT22;9641;51.494;6.670;2022-12-18T06:02:13;-4.00;50.30
19017;DHT22;9641;51.494;6.670;2022-12-18T06:04:40;-4.10;41.40
19017;DHT22;9641;51.494;6.670;2022-12-18T06:07:07;-4.10;42.80
19017;DHT22;9641;51.494;6.670;2022-12-18T06:09:34;-4.10;40.60
19017;DHT22;9641;51.494;6.670;2022-12-18T06:12:01;-4.10;45.60
19017;DHT22;9641;51.494;6.670;2022-12-18T06:14:29;-4.00;48.60
19017;DHT22;9641;51.494;6.670;2022-12-18T06:16:56;-4.00;33.50
19017;DHT22;9641;51.494;6.670;2022-12-18T06:19:23;-3.80;26.40
19017;DHT22;9641;51.494;6.670;2022-12-18T06:21:50;-3.90;21.10
19017;DHT22;9641;51.494;6.670;2022-12-18T06:24:17;-3.90;20.30
19017;DHT22;9641;51.494;6.670;2022-12-18T06:26:45;-3.90;14.70
19017;DHT22;9641;51.494;6.670;2022-12-18T06:29:12;-4.00;16.70
19017;DHT22;9641;51.494;6.670;2022-12-18T06:31:40;-4.20;22.40
19017;DHT22;9641;51.494;6.670;2022-12-18T06:34:07;-4.30;29.70
19017;DHT22;9641;51.494;6.670;2022-12-18T06:36:34;-4.40;35.90
19017;DHT22;9641;51.494;6.670;2022-12-18T06:39:01;-4.40;43.50
19017;DHT22;9641;51.494;6.670;2022-12-18T06:41:28;-4.50;47.40
19017;DHT22;9641;51.494;6.670;2022-12-18T06:43:55;-4.60;53.20
19017;DHT22;9641;51.494;6.670;2022-12-18T06:46:24;-4.60;60.60
19017;DHT22;9641;51.494;6.670;2022-12-18T06:48:53;-4.60;64.40
19017;DHT22;9641;51.494;6.670;2022-12-18T06:51:22;-4.60;67.70
19017;DHT22;9641;51.494;6.670;2022-12-18T06:53:49;-4.60;71.00
19017;DHT22;9641;51.494;6.670;2022-12-18T06:56:16;-4.70;74.70
19017;DHT22;9641;51.494;6.670;2022-12-18T06:58:43;-4.70;83.10
19017;DHT22;9641;51.494;6.670;2022-12-18T07:01:12;-4.70;82.00
19017;DHT22;9641;51.494;6.670;2022-12-18T07:03:40;-4.70;82.50
19017;DHT22;9641;51.494;6.670;2022-12-18T07:06:15;-4.80;86.50
19017;DHT22;9641;51.494;6.670;2022-12-18T07:08:42;-4.70;90.00
19017;DHT22;9641;51.494;6.670;2022-12-18T07:11:09;-4.80;90.50
19017;DHT22;9641;51.494;6.670;2022-12-18T07:13:36;-4.80;90.50
19017;DHT22;9641;51.494;6.670;2022-12-18T07:16:13;-4.90;92.70
19017;DHT22;9641;51.494;6.670;2022-12-18T07:18:40;-4.80;93.30
19017;DHT22;9641;51.494;6.670;2022-12-18T07:21:08;-4.90;93.30
19017;DHT22;9641;51.494;6.670;2022-12-18T07:23:38;-4.90;95.60
19017;DHT22;9641;51.494;6.670;2022-12-18T07:26:07;-5.00;99.00
19017;DHT22;9641;51.494;6.670;2022-12-18T07:28:38;-4.90;99.90
19017;DHT22;9641;51.494;6.670;2022-12-18T07:31:06;-4.90;99.90
19017;DHT22;9641;51.494;6.670;2022-12-18T07:33:33;-4.90;99.90
19017;DHT22;9641;51.494;6.670;2022-12-18T07:36:01;-4.90;99.90
19017;DHT22;9641;51.494;6.670;2022-12-18T07:38:29;-5.00;99.90
19017;DHT22;9641;51.494;6.670;2022-12-18T07:41:02;-5.00;99.90
19017;DHT22;9641;51.494;6.670;2022-12-18T07:43:29;-4.90;99.90
19017;DHT22;9641;51.494;6.670;2022-12-18T07:45:57;-4.90;99.90
19017;DHT22;9641;51.494;6.670;2022-12-18T07:48:24;-4.90;99.90
19017;DHT22;9641;51.494;6.670;2022-12-18T07:50:58;-4.90;99.90
19017;DHT22;9641;51.494;6.670;2022-12-18T07:53:26;-4.80;99.90
19017;DHT22;9641;51.494;6.670;2022-12-18T07:55:55;-4.60;99.90
19017;DHT22;9641;51.494;6.670;2022-12-18T07:58:25;-4.40;99.90
19017;DHT22;9641;51.494;6.670;2022-12-18T08:00:52;-4.40;99.90
19017;DHT22;9641;51.494;6.670;2022-12-18T08:03:20;-4.30;99.60
19017;DHT22;9641;51.494;6.670;2022-12-18T08:05:47;-4.30;95.50
19017;DHT22;9641;51.494;6.670;2022-12-18T08:08:16;-4.10;94.30
19017;DHT22;9641;51.494;6.670;2022-12-18T08:10:43;-4.00;80.30
19017;DHT22;9641;51.494;6.670;2022-12-18T08:13:10;-3.80;61.40
19017;DHT22;9641;51.494;6.670;2022-12-18T08:15:40;-3.60;44.50
19017;DHT22;9641;51.494;6.670;2022-12-18T08:18:07;-3.50;18.10
19017;DHT22;9641;51.494;6.670;2022-12-18T08:20:35;-3.60;20.90
19017;DHT22;9641;51.494;6.670;2022-12-18T08:23:07;-3.50;19.00
19017;DHT22;9641;51.494;6.670;2022-12-18T08:25:34;-3.40;16.50
19017;DHT22;9641;51.494;6.670;2022-12-18T08:28:02;-3.30;5.60
19017;DHT22;9641;51.494;6.670;2022-12-18T08:30:30;-3.30;1.00
19017;DHT22;9641;51.494;6.670;2022-12-18T08:32:58;-3.10;1.00
19017;DHT22;9641;51.494;6.670;2022-12-18T08:35:25;-3.00;1.00
19017;DHT22;9641;51.494;6.670;2022-12-18T08:37:53;-2.90;1.00
19017;DHT22;9641;51.494;6.670;2022-12-18T08:40:20;-2.80;1.00
19017;DHT22;9641;51.494;6.670;2022-12-18T08:42:47;-2.60;1.00
19017;DHT22;9641;51.494;6.670;2022-12-18T08:45:32;-2.50;1.00
19017;DHT22;9641;51.494;6.670;2022-12-18T08:48:01;-2.40;1.00
19017;DHT22;9641;51.494;6.670;2022-12-18T08:50:29;-2.20;1.00
19017;DHT22;9641;51.494;6.670;2022-12-18T08:52:58;-2.00;1.00
19017;DHT22;9641;51.494;6.670;2022-12-18T08:55:27;-1.90;1.00
19017;DHT22;9641;51.494;6.670;2022-12-18T08:57:56;-1.70;1.00
19017;DHT22;9641;51.494;6.670;2022-12-18T09:03:22;-1.60;1.00
19017;DHT22;9641;51.494;6.670;2022-12-18T09:06:01;-1.50;1.00
19017;DHT22;9641;51.494;6.670;2022-12-18T09:08:44;-1.40;1.00
19017;DHT22;9641;51.494;6.670;2022-12-18T09:11:32;-1.30;1.00
19017;DHT22;9641;51.494;6.670;2022-12-18T09:14:15;-1.40;1.00
19017;DHT22;9641;51.494;6.670;2022-12-18T09:17:00;-1.40;99.90
19017;DHT22;9641;51.494;6.670;2022-12-18T09:19:30;-1.30;1.00
19017;DHT22;9641;51.494;6.670;2022-12-18T09:21:58;-1.30;1.00
19017;DHT22;9641;51.494;6.670;2022-12-18T09:24:25;-1.30;1.00
19017;DHT22;9641;51.494;6.670;2022-12-18T09:26:54;-1.30;1.00
19017;DHT22;9641;51.494;6.670;2022-12-18T09:29:25;-1.10;99.90
19017;DHT22;9641;51.494;6.670;2022-12-18T09:31:57;-0.90;43.70
19017;DHT22;9641;51.494;6.670;2022-12-18T09:34:39;-0.70;1.00
19017;DHT22;9641;51.494;6.670;2022-12-18T09:37:07;-0.60;1.00
19017;DHT22;9641;51.494;6.670;2022-12-18T09:39:41;-0.40;99.90
19017;DHT22;9641;51.494;6.670;2022-12-18T09:42:16;-0.40;1.00
19017;DHT22;9641;51.494;6.670;2022-12-18T09:44:55;-0.30;1.00
19017;DHT22;9641;51.494;6.670;2022-12-18T09:47:28;-0.20;99.90
19017;DHT22;9641;51.494;6.670;2022-12-18T09:50:35;-0.10;1.00
19017;DHT22;9641;51.494;6.670;2022-12-18T09:53:21;0.00;1.00
19017;DHT22;9641;51.494;6.670;2022-12-18T09:56:04;0.00;99.90
19017;DHT22;9641;51.494;6.670;2022-12-18T09:58:39;0.10;1.00
19017;DHT22;9641;51.494;6.670;2022-12-18T10:01:12;0.20;1.00
19017;DHT22;9641;51.494;6.670;2022-12-18T10:03:44;0.40;99.90
19017;DHT22;9641;51.494;6.670;2022-12-18T10:06:23;0.40;99.90
19017;DHT22;9641;51.494;6.670;2022-12-18T10:09:08;0.60;99.90
19017;DHT22;9641;51.494;6.670;2022-12-18T10:11:46;0.80;1.00
19017;DHT22;9641;51.494;6.670;2022-12-18T10:14:18;0.90;99.90
19017;DHT22;9641;51.494;6.670;2022-12-18T10:17:02;1.00;1.00
19017;DHT22;9641;51.494;6.670;2022-12-18T10:19:38;1.10;1.00
19017;DHT22;9641;51.494;6.670;2022-12-18T10:22:19;1.30;99.90
19017;DHT22;9641;51.494;6.670;2022-12-18T10:24:55;1.40;1.00
19017;DHT22;9641;51.494;6.670;2022-12-18T10:27:26;1.50;1.00
19017;DHT22;9641;51.494;6.670;2022-12-18T10:29:54;1.70;99.90
19017;DHT22;9641;51.494;6.670;2022-12-18T10:32:23;1.80;99.90
19017;DHT22;9641;51.494;6.670;2022-12-18T10:34:52;2.00;99.90
19017;DHT22;9641;51.494;6.670;2022-12-18T10:37:23;2.10;99.90
19017;DHT22;9641;51.494;6.670;2022-12-18T10:40:12;2.40;14.00
19017;DHT22;9641;51.494;6.670;2022-12-18T10:42:45;2.80;1.00
19017;DHT22;9641;51.494;6.670;2022-12-18T10:45:16;3.30;1.00
19017;DHT22;9641;51.494;6.670;2022-12-18T10:47:48;3.50;1.00
19017;DHT22;9641;51.494;6.670;2022-12-18T10:50:26;3.60;1.00
19017;DHT22;9641;51.494;6.670;2022-12-18T10:53:00;3.50;1.00
19017;DHT22;9641;51.494;6.670;2022-12-18T10:55:32;3.40;1.00
19017;DHT22;9641;51.494;6.670;2022-12-18T10:58:16;3.20;1.00
19017;DHT22;9641;51.494;6.670;2022-12-18T11:01:03;3.10;1.00
19017;DHT22;9641;51.494;6.670;2022-12-18T11:03:33;3.10;1.00
19017;DHT22;9641;51.494;6.670;2022-12-18T11:06:13;3.10;1.00
19017;DHT22;9641;51.494;6.670;2022-12-18T11:08:57;2.90;1.00
19017;DHT22;9641;51.494;6.670;2022-12-18T11:11:31;2.90;1.00
19017;DHT22;9641;51.494;6.670;2022-12-18T11:14:06;2.90;1.00
19017;DHT22;9641;51.494;6.670;2022-12-18T11:16:42;3.00;1.00
19017;DHT22;9641;51.494;6.670;2022-12-18T11:19:36;3.00;1.00
19017;DHT22;9641;51.494;6.670;2022-12-18T11:22:20;2.80;1.00
19017;DHT22;9641;51.494;6.670;2022-12-18T11:25:04;2.80;1.00
19017;DHT22;9641;51.494;6.670;2022-12-18T11:27:32;2.80;1.00
19017;DHT22;9641;51.494;6.670;2022-12-18T11:30:08;2.90;1.00
19017;DHT22;9641;51.494;6.670;2022-12-18T11:32:40;3.10;1.00
19017;DHT22;9641;51.494;6.670;2022-12-18T11:35:16;3.10;1.00
19017;DHT22;9641;51.494;6.670;2022-12-18T11:37:50;3.10;1.00
19017;DHT22;9641;51.494;6.670;2022-12-18T11:40:35;3.10;1.00
19017;DHT22;9641;51.494;6.670;2022-12-18T11:43:06;3.10;1.00
19017;DHT22;9641;51.494;6.670;2022-12-18T11:45:41;3.00;1.00
19017;DHT22;9641;51.494;6.670;2022-12-18T11:48:15;2.80;1.00
19017;DHT22;9641;51.494;6.670;2022-12-18T11:50:49;2.70;1.00
19017;DHT22;9641;51.494;6.670;2022-12-18T11:53:19;2.60;1.00
19017;DHT22;9641;51.494;6.670;2022-12-18T11:56:29;2.60;1.00
19017;DHT22;9641;51.494;6.670;2022-12-18T11:59:13;2.50;1.00
19017;DHT22;9641;51.494;6.670;2022-12-18T12:02:17;2.60;1.00
19017;DHT22;9641;51.494;6.670;2022-12-18T12:05:16;2.50;1.00
19017;DHT22;9641;51.494;6.670;2022-12-18T12:07:52;2.60;1.00
19017;DHT22;9641;51.494;6.670;2022-12-18T12:10:31;2.50;1.00
19017;DHT22;9641;51.494;6.670;2022-12-18T12:13:15;2.50;1.00
19017;DHT22;9641;51.494;6.670;2022-12-18T12:16:01;2.60;1.00
19017;DHT22;9641;51.494;6.670;2022-12-18T12:18:37;2.60;1.00
19017;DHT22;9641;51.494;6.670;2022-12-18T12:21:12;2.70;1.00
19017;DHT22;9641;51.494;6.670;2022-12-18T12:23:47;2.70;1.00
19017;DHT22;9641;51.494;6.670;2022-12-18T12:26:23;2.70;1.00
19017;DHT22;9641;51.494;6.670;2022-12-18T12:29:16;2.60;1.00
19017;DHT22;9641;51.494;6.670;2022-12-18T12:32:07;2.60;1.00
19017;DHT22;9641;51.494;6.670;2022-12-18T12:34:43;2.50;1.00
19017;DHT22;9641;51.494;6.670;2022-12-18T12:37:22;2.50;1.00
19017;DHT22;9641;51.494;6.670;2022-12-18T12:39:53;2.50;1.00
19017;DHT22;9641;51.494;6.670;2022-12-18T12:42:27;2.50;1.00
19017;DHT22;9641;51.494;6.670;2022-12-18T12:45:30;2.40;1.00
19017;DHT22;9641;51.494;6.670;2022-12-18T12:48:01;2.40;1.00
19017;DHT22;9641;51.494;6.670;2022-12-18T12:50:34;2.40;1.00
19017;DHT22;9641;51.494;6.670;2022-12-18T12:53:07;2.30;1.00
19017;DHT22;9641;51.494;6.670;2022-12-18T12:55:36;2.30;1.00
19017;DHT22;9641;51.494;6.670;2022-12-18T12:58:11;2.30;1.00
19017;DHT22;9641;51.494;6.670;2022-12-18T13:00:49;2.30;1.00
19017;DHT22;9641;51.494;6.670;2022-12-18T13:03:27;2.10;1.00
19017;DHT22;9641;51.494;6.670;2022-12-18T13:06:02;2.20;1.00
19017;DHT22;9641;51.494;6.670;2022-12-18T13:08:52;2.20;1.00
19017;DHT22;9641;51.494;6.670;2022-12-18T13:11:31;2.20;1.00
19017;DHT22;9641;51.494;6.670;2022-12-18T13:14:29;2.10;1.00
19017;DHT22;9641;51.494;6.670;2022-12-18T13:17:28;2.20;1.00
19017;DHT22;9641;51.494;6.670;2022-12-18T13:20:08;2.20;1.00
19017;DHT22;9641;51.494;6.670;2022-12-18T13:22:37;2.20;1.00
19017;DHT22;9641;51.494;6.670;2022-12-18T13:25:31;2.20;1.00
19017;DHT22;9641;51.494;6.670;2022-12-18T13:28:09;2.20;1.00
19017;DHT22;9641;51.494;6.670;2022-12-18T13:30:44;2.20;1.00
19017;DHT22;9641;51.494;6.670;2022-12-18T13:33:39;2.20;1.00
19017;DHT22;9641;51.494;6.670;2022-12-18T13:36:28;2.00;1.00
19017;DHT22;9641;51.494;6.670;2022-12-18T13:42:39;2.00;1.00
19017;DHT22;9641;51.494;6.670;2022-12-18T13:45:42;2.00;1.00
19017;DHT22;9641;51.494;6.670;2022-12-18T13:48:22;1.90;1.00
19017;DHT22;9641;51.494;6.670;2022-12-18T13:50:53;1.90;1.00
19017;DHT22;9641;51.494;6.670;2022-12-18T13:53:26;1.90;1.00
19017;DHT22;9641;51.494;6.670;2022-12-18T13:55:53;1.90;1.00
19017;DHT22;9641;51.494;6.670;2022-12-18T13:58:20;1.80;1.00
19017;DHT22;9641;51.494;6.670;2022-12-18T14:00:48;1.80;1.00
19017;DHT22;9641;51.494;6.670;2022-12-18T14:03:29;1.90;1.00
19017;DHT22;9641;51.494;6.670;2022-12-18T14:06:03;1.90;1.00
19017;DHT22;9641;51.494;6.670;2022-12-18T14:08:38;1.90;1.00
19017;DHT22;9641;51.494;6.670;2022-12-18T14:11:18;1.90;1.00
19017;DHT22;9641;51.494;6.670;2022-12-18T14:13:46;1.90;1.00
19017;DHT22;9641;51.494;6.670;2022-12-18T14:16:15;1.80;1.00
19017;DHT22;9641;51.494;6.670;2022-12-18T14:18:45;1.70;1.00
19017;DHT22;9641;51.494;6.670;2022-12-18T14:21:26;1.70;1.00
19017;DHT22;9641;51.494;6.670;2022-12-18T14:24:12;1.70;1.00
19017;DHT22;9641;51.494;6.670;2022-12-18T14:26:40;1.80;1.00
19017;DHT22;9641;51.494;6.670;2022-12-18T14:29:34;1.70;1.00
19017;DHT22;9641;51.494;6.670;2022-12-18T14:32:15;1.70;1.00
19017;DHT22;9641;51.494;6.670;2022-12-18T14:34:46;1.70;1.00
19017;DHT22;9641;51.494;6.670;2022-12-18T14:37:25;1.50;1.00
19017;DHT22;9641;51.494;6.670;2022-12-18T14:39:57;1.60;1.00
19017;DHT22;9641;51.494;6.670;2022-12-18T14:42:25;1.60;1.00
19017;DHT22;9641;51.494;6.670;2022-12-18T14:48:01;1.50;1.00
19017;DHT22;9641;51.494;6.670;2022-12-18T14:50:34;1.50;1.00
19017;DHT22;9641;51.494;6.670;2022-12-18T14:53:05;1.60;1.00
19017;DHT22;9641;51.494;6.670;2022-12-18T14:55:33;1.50;1.00
19017;DHT22;9641;51.494;6.670;2022-12-18T14:58:10;1.50;1.00
19017;DHT22;9641;51.494;6.670;2022-12-18T15:00:45;1.50;1.00
19017;DHT22;9641;51.494;6.670;2022-12-18T15:03:19;1.50;1.00
19017;DHT22;9641;51.494;6.670;2022-12-18T15:06:16;1.40;1.00
19017;DHT22;9641;51.494;6.670;2022-12-18T15:08:48;1.40;1.00
19017;DHT22;9641;51.494;6.670;2022-12-18T15:11:32;1.30;1.00
19017;DHT22;9641;51.494;6.670;2022-12-18T15:14:31;1.40;1.00
19017;DHT22;9641;51.494;6.670;2022-12-18T15:17:03;1.30;1.00
19017;DHT22;9641;51.494;6.670;2022-12-18T15:22:29;1.30;1.00
19017;DHT22;9641;51.494;6.670;2022-12-18T15:25:00;1.20;1.00
19017;DHT22;9641;51.494;6.670;2022-12-18T15:27:30;1.20;1.00
19017;DHT22;9641;51.494;6.670;2022-12-18T15:33:16;1.20;1.00
19017;DHT22;9641;51.494;6.670;2022-12-18T15:35:44;1.30;1.00
19017;DHT22;9641;51.494;6.670;2022-12-18T15:38:11;1.30;1.00
19017;DHT22;9641;51.494;6.670;2022-12-18T15:40:41;1.30;1.00
19017;DHT22;9641;51.494;6.670;2022-12-18T15:43:10;1.20;1.00
19017;DHT22;9641;51.494;6.670;2022-12-18T15:45:54;1.20;1.00
19017;DHT22;9641;51.494;6.670;2022-12-18T15:48:22;1.20;1.00
19017;DHT22;9641;51.494;6.670;2022-12-18T15:50:50;1.20;1.00
19017;DHT22;9641;51.494;6.670;2022-12-18T15:53:19;1.20;1.00
19017;DHT22;9641;51.494;6.670;2022-12-18T15:55:52;1.20;1.00
19017;DHT22;9641;51.494;6.670;2022-12-18T15:58:37;1.10;1.00
19017;DHT22;9641;51.494;6.670;2022-12-18T16:01:04;1.10;1.00
19017;DHT22;9641;51.494;6.670;2022-12-18T16:03:31;1.10;1.00
19017;DHT22;9641;51.494;6.670;2022-12-18T16:05:58;1.00;1.00
19017;DHT22;9641;51.494;6.670;2022-12-18T16:08:27;1.10;1.00
19017;DHT22;9641;51.494;6.670;2022-12-18T16:10:58;1.10;7.60
19017;DHT22;9641;51.494;6.670;2022-12-18T16:13:25;1.10;99.90
19017;DHT22;9641;51.494;6.670;2022-12-18T16:15:52;1.00;99.90
19017;DHT22;9641;51.494;6.670;2022-12-18T16:18:19;1.00;99.90
19017;DHT22;9641;51.494;6.670;2022-12-18T16:20:46;1.00;99.90
19017;DHT22;9641;51.494;6.670;2022-12-18T16:23:13;1.00;99.90
19017;DHT22;9641;51.494;6.670;2022-12-18T16:25:40;1.00;1.00
19017;DHT22;9641;51.494;6.670;2022-12-18T16:28:08;1.00;1.00
19017;DHT22;9641;51.494;6.670;2022-12-18T16:30:36;1.00;1.00
19017;DHT22;9641;51.494;6.670;2022-12-18T16:33:03;1.00;1.00
19017;DHT22;9641;51.494;6.670;2022-12-18T16:35:30;1.00;1.00
19017;DHT22;9641;51.494;6.670;2022-12-18T16:37:58;0.90;1.00
19017;DHT22;9641;51.494;6.670;2022-12-18T16:40:26;1.00;1.00
19017;DHT22;9641;51.494;6.670;2022-12-18T16:42:53;1.00;56.60
19017;DHT22;9641;51.494;6.670;2022-12-18T16:45:21;0.90;99.90
19017;DHT22;9641;51.494;6.670;2022-12-18T16:47:48;0.90;99.90
19017;DHT22;9641;51.494;6.670;2022-12-18T16:50:15;0.90;99.90